TimeEDT,TemperatureF,Dew PointF,Humidity,Sea Level PressureIn,VisibilityMPH,Wind Direction,Wind SpeedMPH,Gust SpeedMPH,PrecipitationIn,Events,Conditions,WindDirDegrees,DateUTC
12:15 AM,55.4,51.8,88,30.23,10.0,Calm,Calm,-,N/A,,Clear,0,2013-10-31 04:15:00
12:35 AM,55.4,51.8,88,30.23,1.8,Calm,Calm,-,N/A,,Clear,0,2013-10-31 04:35:00
12:55 AM,55.4,51.8,88,30.23,2.5,Calm,Calm,-,N/A,,Clear,0,2013-10-31 04:55:00
1:15 AM,53.6,48.2,82,30.23,1.8,Calm,Calm,-,N/A,,Clear,0,2013-10-31 05:15:00
1:35 AM,53.6,48.2,82,30.23,4.0,Calm,Calm,-,N/A,,Clear,0,2013-10-31 05:35:00
1:55 AM,53.6,48.2,82,30.22,7.0,Calm,Calm,-,N/A,,Clear,0,2013-10-31 05:55:00
2:15 AM,53.6,48.2,82,30.21,10.0,Calm,Calm,-,N/A,,Clear,0,2013-10-31 06:15:00
2:35 AM,53.6,48.2,82,30.21,8.0,Calm,Calm,-,N/A,,Clear,0,2013-10-31 06:35:00
2:55 AM,53.6,48.2,82,30.20,10.0,Calm,Calm,-,N/A,,Clear,0,2013-10-31 06:55:00
3:15 AM,51.8,48.2,88,30.20,3.0,Calm,Calm,-,N/A,,Clear,0,2013-10-31 07:15:00
3:35 AM,51.8,48.2,88,30.20,1.8,Calm,Calm,-,N/A,,Clear,0,2013-10-31 07:35:00
3:55 AM,51.8,48.2,88,30.21,9.0,Calm,Calm,-,N/A,,Clear,0,2013-10-31 07:55:00
4:15 AM,51.8,46.4,82,30.20,9.0,Calm,Calm,-,N/A,,Clear,0,2013-10-31 08:15:00
4:35 AM,51.8,46.4,82,30.21,7.0,Calm,Calm,-,N/A,,Clear,0,2013-10-31 08:35:00
4:55 AM,51.8,46.4,82,30.20,10.0,Calm,Calm,-,N/A,,Clear,0,2013-10-31 08:55:00
5:15 AM,51.8,46.4,82,30.21,8.0,Calm,Calm,-,N/A,,Mostly Cloudy,0,2013-10-31 09:15:00
5:35 AM,51.8,46.4,82,30.22,0.8,Calm,Calm,-,N/A,,Overcast,0,2013-10-31 09:35:00
5:55 AM,51.8,46.4,82,30.21,0.2,Calm,Calm,-,N/A,,Overcast,0,2013-10-31 09:55:00
6:15 AM,51.8,46.4,82,30.21,0.2,Calm,Calm,-,N/A,,Overcast,0,2013-10-31 10:15:00
6:35 AM,50.0,46.4,87,30.20,0.2,Calm,Calm,-,N/A,,Overcast,0,2013-10-31 10:35:00
6:55 AM,50.0,46.4,87,30.20,0.2,Calm,Calm,-,N/A,,Overcast,0,2013-10-31 10:55:00
7:15 AM,50.0,46.4,87,30.20,0.5,Calm,Calm,-,N/A,,Overcast,0,2013-10-31 11:15:00
7:35 AM,50.0,46.4,87,30.20,0.8,Calm,Calm,-,N/A,,Overcast,0,2013-10-31 11:35:00
7:55 AM,51.8,46.4,82,30.20,0.2,Calm,Calm,-,N/A,,Overcast,0,2013-10-31 11:55:00
8:15 AM,51.8,48.2,88,30.21,0.2,Calm,Calm,-,N/A,,Overcast,0,2013-10-31 12:15:00
8:35 AM,53.6,50.0,88,30.21,1.8,Calm,Calm,-,N/A,,Mostly Cloudy,0,2013-10-31 12:35:00
8:55 AM,55.4,51.8,88,30.22,2.5,Calm,Calm,-,N/A,,Mostly Cloudy,0,2013-10-31 12:55:00
9:15 AM,57.2,53.6,88,30.22,3.0,Calm,Calm,-,N/A,,Overcast,0,2013-10-31 13:15:00
9:35 AM,59.0,55.4,88,30.21,7.0,NE,4.6,-,N/A,,Overcast,50,2013-10-31 13:35:00
9:55 AM,60.8,57.2,88,30.21,8.0,Calm,Calm,-,N/A,,Mostly Cloudy,0,2013-10-31 13:55:00
10:15 AM,62.6,57.2,82,30.20,10.0,East,3.5,-,N/A,,Mostly Cloudy,90,2013-10-31 14:15:00
10:35 AM,64.4,57.2,77,30.19,10.0,Calm,Calm,-,N/A,,Overcast,0,2013-10-31 14:35:00
10:55 AM,66.2,59.0,78,30.19,10.0,Calm,Calm,-,N/A,,Overcast,0,2013-10-31 14:55:00
11:15 AM,69.8,59.0,68,30.19,10.0,South,5.8,-,N/A,,Mostly Cloudy,170,2013-10-31 15:15:00
11:35 AM,69.8,60.8,73,30.18,10.0,South,5.8,-,N/A,,Overcast,180,2013-10-31 15:35:00
11:55 AM,69.8,62.6,78,30.18,10.0,SE,6.9,-,N/A,,Overcast,130,2013-10-31 15:55:00
12:15 PM,73.4,64.4,73,30.16,10.0,SSE,9.2,-,N/A,,Overcast,150,2013-10-31 16:15:00
12:35 PM,73.4,64.4,73,30.15,10.0,SSE,8.1,-,N/A,,Mostly Cloudy,160,2013-10-31 16:35:00
12:55 PM,73.4,64.4,73,30.13,10.0,SSW,3.5,-,N/A,,Overcast,200,2013-10-31 16:55:00
1:15 PM,75.2,64.4,69,30.12,10.0,South,10.4,-,N/A,,Mostly Cloudy,170,2013-10-31 17:15:00
1:35 PM,75.2,64.4,69,30.10,10.0,South,9.2,-,N/A,,Mostly Cloudy,180,2013-10-31 17:35:00
1:55 PM,77.0,64.4,65,30.09,10.0,SW,10.4,-,N/A,,Mostly Cloudy,220,2013-10-31 17:55:00
2:15 PM,78.8,64.4,61,30.08,10.0,SW,9.2,-,N/A,,Mostly Cloudy,220,2013-10-31 18:15:00
2:35 PM,78.8,62.6,57,30.08,10.0,SSW,10.4,-,N/A,,Scattered Clouds,210,2013-10-31 18:35:00
2:55 PM,78.8,60.8,54,30.08,10.0,South,17.3,25.3,N/A,,Mostly Cloudy,190,2013-10-31 18:55:00
3:15 PM,78.8,60.8,54,30.08,10.0,SSW,15.0,18.4,N/A,,Scattered Clouds,200,2013-10-31 19:15:00
3:35 PM,78.8,59.0,51,30.07,10.0,SSW,17.3,-,N/A,,Partly Cloudy,200,2013-10-31 19:35:00
3:55 PM,78.8,57.2,47,30.07,10.0,SSW,16.1,-,N/A,,Partly Cloudy,200,2013-10-31 19:55:00
4:15 PM,77.0,57.2,50,30.07,10.0,SSW,12.7,-,N/A,,Clear,210,2013-10-31 20:15:00
4:35 PM,75.2,57.2,53,30.08,10.0,SSW,9.2,-,N/A,,Clear,200,2013-10-31 20:35:00
4:55 PM,75.2,57.2,53,30.07,10.0,SSW,8.1,-,N/A,,Clear,200,2013-10-31 20:55:00
5:15 PM,73.4,57.2,57,30.07,10.0,SSE,8.1,-,N/A,,Clear,160,2013-10-31 21:15:00
5:35 PM,71.6,64.4,78,30.07,10.0,South,10.4,16.1,N/A,,Clear,180,2013-10-31 21:35:00
5:55 PM,71.6,62.6,73,30.06,10.0,South,8.1,-,N/A,,Clear,180,2013-10-31 21:55:00
6:15 PM,71.6,62.6,73,30.06,10.0,South,8.1,-,N/A,,Clear,180,2013-10-31 22:15:00
6:35 PM,69.8,62.6,78,30.06,10.0,South,6.9,-,N/A,,Clear,180,2013-10-31 22:35:00
6:55 PM,69.8,62.6,78,30.06,10.0,South,5.8,-,N/A,,Clear,170,2013-10-31 22:55:00
7:15 PM,69.8,62.6,78,30.06,10.0,South,8.1,-,N/A,,Clear,170,2013-10-31 23:15:00
7:35 PM,68.0,62.6,83,30.05,10.0,South,6.9,-,N/A,,Clear,170,2013-10-31 23:35:00
7:55 PM,68.0,62.6,83,30.05,10.0,South,4.6,-,N/A,,Clear,190,2013-10-31 23:55:00
8:15 PM,68.0,62.6,83,30.05,10.0,South,4.6,-,N/A,,Clear,180,2013-11-01 00:15:00
8:35 PM,68.0,62.6,83,30.04,10.0,South,6.9,-,N/A,,Clear,170,2013-11-01 00:35:00
8:55 PM,68.0,62.6,83,30.04,10.0,South,5.8,-,N/A,,Partly Cloudy,180,2013-11-01 00:55:00
9:15 PM,68.0,62.6,83,30.04,10.0,South,5.8,-,N/A,,Partly Cloudy,170,2013-11-01 01:15:00
9:35 PM,68.0,62.6,83,30.04,10.0,South,4.6,-,N/A,,Clear,190,2013-11-01 01:35:00
9:55 PM,68.0,62.6,83,30.04,10.0,South,5.8,-,N/A,,Clear,190,2013-11-01 01:55:00
10:15 PM,68.0,62.6,83,30.04,10.0,South,4.6,-,N/A,,Clear,180,2013-11-01 02:15:00
10:35 PM,68.0,62.6,83,30.03,10.0,South,6.9,-,N/A,,Clear,180,2013-11-01 02:35:00
10:55 PM,68.0,62.6,83,30.02,10.0,South,6.9,-,N/A,,Clear,170,2013-11-01 02:55:00
11:15 PM,68.0,62.6,83,30.02,10.0,South,5.8,-,N/A,,Clear,180,2013-11-01 03:15:00
11:35 PM,68.0,62.6,83,30.02,10.0,South,5.8,-,N/A,,Clear,190,2013-11-01 03:35:00
11:55 PM,69.8,62.6,78,30.01,10.0,South,6.9,-,N/A,,Clear,180,2013-11-01 03:55:00